X  Sluiten METAR luchtvaart weer gegevens      LYNI Nis Airport
Temperatuur
37°F Temperatuur
37°F Dauwpunt
100% Vochtigheid



Wind
0 MPH
0 KM/U
0 M/S
0 KTS



Kalm
N
Huidig weer

Grotendeels bewolkt Grotendeels bewolkt
Luchtdruk 1028.92 (hPa) - 30.38 (inHg)
Zicht 5 (mijl) - 8 (km)
Vliegveld
Vliegveld code LYNI

Locatie : Nis Airport
Afstand: 63 (mi)

Metar:
LYNI 270430Z 00000KT 8000 BKN013 03/03 Q1029 NOSIG

Tijd: 27-11-2022 05:30 CET